Rechercher aéroport 
image banner adimage banner adimage banner ad
image banner ad

KLAX - Los Angeles Intl

Situé à Los Angeles, United States

ICAO - LAX, IATA - LAX

Données fournies par Airmate  

Information générale

Coordonnées: N33°56'33" W118°24'29"
Élévation : 128 feet MSL.
Variation magnétique : 12° East
Voir autres Aéroports à California

Données opérationnelles

Special qualification required
Heure actuelle UTC:
Heure actuelle locale:
Météo
METAR: KLAX 300053Z 25013KT 10SM FEW009 FEW090 SCT150 SCT250 20/16 A2985 RMK AO2 SLP107 T02000156 $
TAF: KLAX 292348Z 3000/3106 25012KT P6SM FEW009 SCT090 FM300400 VRB03KT P6SM SKC FM301100 VRB03KT P6SM BKN008 FM301800 VRB03KT P6SM SCT010 FM302000 26012KT P6SM SKC FM310500 VRB03KT P6SM SKC
Voir NOTAMs / SUP AIP / TFR affectant cet aéroport [VIEW]
Fréquences de communication: [VIEW]

Pistes:

Identifiant RWYQFULongueur (ft)Largeur (ft)SurfaceLDA (ft)
06R83°10885150CONC9748
24L263°10885150CONC9483
06L83°8926150OTHER8566
24R263°8926150OTHER8926
07R83°11095200OTHER11095
25L263°11095200OTHER11095
07L83°12923150CONC11259
25R263°12923150CONC11134

Coordonnées de l'aéroport

Adresse: Los Angeles United States

Vue satellite de KLAX